Terminal Aerodrome Forecast
Issued by NWS Green Bay, WI

Home | Current Version | Previous Version | Text Only | Print | Product List | Glossary Off
Versions: 1 2 3 4 5 6 7 8 9 10 11 12 13 14 15 16 17 18 19 20 21 22 23 24 25 26 27 28 29 30 31 32 33 34 35

000
FTUS43 KGRB 291900 AAA
TAFGRB
TAF AMD
KGRB 291958Z 2920/3018 32012G22KT P6SM OVC035
     FM300000 33015G22KT P6SM OVC035
     FM300300 33014KT P6SM SCT030
     FM300900 33009KT P6SM FEW025 SCT250
     FM301500 32006KT P6SM FEW025 SCT090 BKN200=

USA.gov is the U.S. government's official web portal to all federal, state and local government web resources and services.